sensor_id;sensor_type;location;lat;lon;timestamp;P1;durP1;ratioP1;P2;durP2;ratioP2
3261;SDS011;1643;47.746;9.000;2023-08-21T00:00:43;8.33;;;6.40;;
3261;SDS011;1643;47.746;9.000;2023-08-21T00:03:09;5.90;;;5.27;;
3261;SDS011;1643;47.746;9.000;2023-08-21T00:05:35;7.27;;;6.20;;
3261;SDS011;1643;47.746;9.000;2023-08-21T00:08:00;7.63;;;6.00;;
3261;SDS011;1643;47.746;9.000;2023-08-21T00:10:26;7.13;;;6.43;;
3261;SDS011;1643;47.746;9.000;2023-08-21T00:12:52;6.93;;;5.87;;
3261;SDS011;1643;47.746;9.000;2023-08-21T00:15:17;6.23;;;5.70;;
3261;SDS011;1643;47.746;9.000;2023-08-21T00:17:43;9.40;;;5.70;;
3261;SDS011;1643;47.746;9.000;2023-08-21T00:20:09;7.33;;;6.57;;
3261;SDS011;1643;47.746;9.000;2023-08-21T00:22:35;7.20;;;6.13;;
3261;SDS011;1643;47.746;9.000;2023-08-21T00:25:01;7.53;;;6.87;;
3261;SDS011;1643;47.746;9.000;2023-08-21T00:27:28;6.60;;;5.73;;
3261;SDS011;1643;47.746;9.000;2023-08-21T00:29:53;7.73;;;6.40;;
3261;SDS011;1643;47.746;9.000;2023-08-21T00:32:19;6.70;;;6.10;;
3261;SDS011;1643;47.746;9.000;2023-08-21T00:34:44;8.67;;;7.30;;
3261;SDS011;1643;47.746;9.000;2023-08-21T00:37:10;8.17;;;6.73;;
3261;SDS011;1643;47.746;9.000;2023-08-21T00:39:36;6.80;;;5.70;;
3261;SDS011;1643;47.746;9.000;2023-08-21T00:42:01;6.97;;;5.83;;
3261;SDS011;1643;47.746;9.000;2023-08-21T00:44:27;6.70;;;6.00;;
3261;SDS011;1643;47.746;9.000;2023-08-21T00:46:53;7.00;;;6.37;;
3261;SDS011;1643;47.746;9.000;2023-08-21T00:49:19;10.00;;;6.30;;
3261;SDS011;1643;47.746;9.000;2023-08-21T00:51:45;8.77;;;6.53;;
3261;SDS011;1643;47.746;9.000;2023-08-21T00:54:13;7.10;;;6.40;;
3261;SDS011;1643;47.746;9.000;2023-08-21T00:56:38;7.60;;;6.70;;
3261;SDS011;1643;47.746;9.000;2023-08-21T00:59:04;6.63;;;6.13;;
3261;SDS011;1643;47.746;9.000;2023-08-21T01:01:30;8.93;;;7.10;;
3261;SDS011;1643;47.746;9.000;2023-08-21T01:03:58;10.53;;;7.07;;
3261;SDS011;1643;47.746;9.000;2023-08-21T01:06:23;6.93;;;6.23;;
3261;SDS011;1643;47.746;9.000;2023-08-21T01:14:07;7.03;;;6.43;;
3261;SDS011;1643;47.746;9.000;2023-08-21T01:16:41;7.00;;;6.40;;
3261;SDS011;1643;47.746;9.000;2023-08-21T01:19:14;10.23;;;6.53;;
3261;SDS011;1643;47.746;9.000;2023-08-21T01:21:49;6.97;;;6.37;;
3261;SDS011;1643;47.746;9.000;2023-08-21T01:24:18;8.07;;;7.30;;
3261;SDS011;1643;47.746;9.000;2023-08-21T01:26:44;7.00;;;6.40;;
3261;SDS011;1643;47.746;9.000;2023-08-21T01:29:10;8.40;;;7.50;;
3261;SDS011;1643;47.746;9.000;2023-08-21T01:31:36;7.80;;;6.47;;
3261;SDS011;1643;47.746;9.000;2023-08-21T01:34:05;7.47;;;6.10;;
3261;SDS011;1643;47.746;9.000;2023-08-21T01:36:33;9.00;;;6.87;;
3261;SDS011;1643;47.746;9.000;2023-08-21T01:39:00;7.50;;;6.90;;
3261;SDS011;1643;47.746;9.000;2023-08-21T01:41:26;8.23;;;7.43;;
3261;SDS011;1643;47.746;9.000;2023-08-21T01:43:52;9.53;;;5.97;;
3261;SDS011;1643;47.746;9.000;2023-08-21T01:46:17;7.90;;;7.10;;
3261;SDS011;1643;47.746;9.000;2023-08-21T01:48:43;8.17;;;7.37;;
3261;SDS011;1643;47.746;9.000;2023-08-21T01:51:08;7.73;;;6.97;;
3261;SDS011;1643;47.746;9.000;2023-08-21T01:53:34;8.13;;;7.00;;
3261;SDS011;1643;47.746;9.000;2023-08-21T01:56:00;9.77;;;6.80;;
3261;SDS011;1643;47.746;9.000;2023-08-21T01:58:25;7.33;;;6.73;;
3261;SDS011;1643;47.746;9.000;2023-08-21T02:00:51;7.73;;;7.03;;
3261;SDS011;1643;47.746;9.000;2023-08-21T02:03:17;9.50;;;6.60;;
3261;SDS011;1643;47.746;9.000;2023-08-21T02:05:42;9.43;;;7.10;;
3261;SDS011;1643;47.746;9.000;2023-08-21T02:08:09;7.47;;;6.77;;
3261;SDS011;1643;47.746;9.000;2023-08-21T02:10:37;8.93;;;6.77;;
3261;SDS011;1643;47.746;9.000;2023-08-21T02:13:03;7.60;;;6.83;;
3261;SDS011;1643;47.746;9.000;2023-08-21T02:15:29;7.30;;;6.60;;
3261;SDS011;1643;47.746;9.000;2023-08-21T02:17:54;8.70;;;7.10;;
3261;SDS011;1643;47.746;9.000;2023-08-21T02:20:20;7.30;;;6.60;;
3261;SDS011;1643;47.746;9.000;2023-08-21T02:22:46;7.83;;;7.03;;
3261;SDS011;1643;47.746;9.000;2023-08-21T02:25:11;8.30;;;7.50;;
3261;SDS011;1643;47.746;9.000;2023-08-21T02:27:37;7.20;;;6.57;;
3261;SDS011;1643;47.746;9.000;2023-08-21T02:30:03;8.30;;;7.47;;
3261;SDS011;1643;47.746;9.000;2023-08-21T02:32:28;7.73;;;7.00;;
3261;SDS011;1643;47.746;9.000;2023-08-21T02:34:54;8.00;;;7.30;;
3261;SDS011;1643;47.746;9.000;2023-08-21T02:37:20;8.47;;;7.10;;
3261;SDS011;1643;47.746;9.000;2023-08-21T02:39:46;7.47;;;6.63;;
3261;SDS011;1643;47.746;9.000;2023-08-21T02:42:11;7.67;;;6.90;;
3261;SDS011;1643;47.746;9.000;2023-08-21T02:44:37;7.97;;;7.27;;
3261;SDS011;1643;47.746;9.000;2023-08-21T02:47:03;9.63;;;6.70;;
3261;SDS011;1643;47.746;9.000;2023-08-21T02:49:28;8.57;;;6.70;;
3261;SDS011;1643;47.746;9.000;2023-08-21T02:51:54;11.83;;;7.30;;
3261;SDS011;1643;47.746;9.000;2023-08-21T02:54:19;7.60;;;6.83;;
3261;SDS011;1643;47.746;9.000;2023-08-21T02:56:45;7.40;;;6.70;;
3261;SDS011;1643;47.746;9.000;2023-08-21T02:59:11;7.60;;;6.90;;
3261;SDS011;1643;47.746;9.000;2023-08-21T03:01:36;8.50;;;7.70;;
3261;SDS011;1643;47.746;9.000;2023-08-21T03:04:02;7.80;;;7.10;;
3261;SDS011;1643;47.746;9.000;2023-08-21T03:06:28;8.40;;;7.60;;
3261;SDS011;1643;47.746;9.000;2023-08-21T03:08:53;7.70;;;6.90;;
3261;SDS011;1643;47.746;9.000;2023-08-21T03:11:19;8.07;;;7.10;;
3261;SDS011;1643;47.746;9.000;2023-08-21T03:13:44;7.87;;;7.13;;
3261;SDS011;1643;47.746;9.000;2023-08-21T03:16:10;7.87;;;7.10;;
3261;SDS011;1643;47.746;9.000;2023-08-21T03:18:41;7.60;;;6.90;;
3261;SDS011;1643;47.746;9.000;2023-08-21T03:21:22;7.87;;;7.10;;
3261;SDS011;1643;47.746;9.000;2023-08-21T03:23:53;7.37;;;6.60;;
3261;SDS011;1643;47.746;9.000;2023-08-21T03:26:20;8.73;;;6.47;;
3261;SDS011;1643;47.746;9.000;2023-08-21T03:28:46;7.90;;;7.20;;
3261;SDS011;1643;47.746;9.000;2023-08-21T03:31:12;8.13;;;7.30;;
3261;SDS011;1643;47.746;9.000;2023-08-21T03:33:37;10.10;;;7.40;;
3261;SDS011;1643;47.746;9.000;2023-08-21T03:36:03;8.60;;;7.67;;
3261;SDS011;1643;47.746;9.000;2023-08-21T03:38:29;7.60;;;6.90;;
3261;SDS011;1643;47.746;9.000;2023-08-21T03:40:54;7.83;;;7.10;;
3261;SDS011;1643;47.746;9.000;2023-08-21T03:43:20;7.60;;;6.90;;
3261;SDS011;1643;47.746;9.000;2023-08-21T03:45:46;7.60;;;6.87;;
3261;SDS011;1643;47.746;9.000;2023-08-21T03:48:11;8.10;;;7.30;;
3261;SDS011;1643;47.746;9.000;2023-08-21T03:50:38;7.93;;;7.13;;
3261;SDS011;1643;47.746;9.000;2023-08-21T03:53:04;8.07;;;7.00;;
3261;SDS011;1643;47.746;9.000;2023-08-21T03:55:29;8.77;;;7.97;;
3261;SDS011;1643;47.746;9.000;2023-08-21T03:57:55;9.70;;;6.70;;
3261;SDS011;1643;47.746;9.000;2023-08-21T04:00:21;8.10;;;7.40;;
3261;SDS011;1643;47.746;9.000;2023-08-21T04:02:47;7.60;;;6.90;;
3261;SDS011;1643;47.746;9.000;2023-08-21T04:05:13;7.73;;;6.93;;
3261;SDS011;1643;47.746;9.000;2023-08-21T04:07:38;7.03;;;6.33;;
3261;SDS011;1643;47.746;9.000;2023-08-21T04:10:05;8.00;;;7.20;;
3261;SDS011;1643;47.746;9.000;2023-08-21T04:12:31;7.07;;;6.40;;
3261;SDS011;1643;47.746;9.000;2023-08-21T04:14:56;7.77;;;7.07;;
3261;SDS011;1643;47.746;9.000;2023-08-21T04:17:22;7.40;;;6.63;;
3261;SDS011;1643;47.746;9.000;2023-08-21T04:19:48;7.73;;;7.03;;
3261;SDS011;1643;47.746;9.000;2023-08-21T04:22:17;8.50;;;7.53;;
3261;SDS011;1643;47.746;9.000;2023-08-21T04:24:43;8.13;;;7.17;;
3261;SDS011;1643;47.746;9.000;2023-08-21T04:27:09;8.90;;;7.30;;
3261;SDS011;1643;47.746;9.000;2023-08-21T04:29:35;7.60;;;6.90;;
3261;SDS011;1643;47.746;9.000;2023-08-21T04:32:01;8.20;;;7.30;;
3261;SDS011;1643;47.746;9.000;2023-08-21T04:34:27;12.77;;;8.03;;
3261;SDS011;1643;47.746;9.000;2023-08-21T04:36:52;9.67;;;7.60;;
3261;SDS011;1643;47.746;9.000;2023-08-21T04:39:18;8.00;;;7.20;;
3261;SDS011;1643;47.746;9.000;2023-08-21T04:41:44;8.70;;;7.80;;
3261;SDS011;1643;47.746;9.000;2023-08-21T04:44:09;9.67;;;7.50;;
3261;SDS011;1643;47.746;9.000;2023-08-21T04:46:35;8.03;;;7.33;;
3261;SDS011;1643;47.746;9.000;2023-08-21T04:49:01;13.10;;;7.83;;
3261;SDS011;1643;47.746;9.000;2023-08-21T04:51:26;8.23;;;7.47;;
3261;SDS011;1643;47.746;9.000;2023-08-21T04:53:52;8.00;;;7.30;;
3261;SDS011;1643;47.746;9.000;2023-08-21T04:56:18;7.43;;;6.83;;
3261;SDS011;1643;47.746;9.000;2023-08-21T04:58:43;7.60;;;6.90;;
3261;SDS011;1643;47.746;9.000;2023-08-21T05:01:09;8.43;;;7.53;;
3261;SDS011;1643;47.746;9.000;2023-08-21T05:03:34;9.27;;;7.53;;
3261;SDS011;1643;47.746;9.000;2023-08-21T05:06:00;9.37;;;6.93;;
3261;SDS011;1643;47.746;9.000;2023-08-21T05:08:26;8.17;;;7.33;;
3261;SDS011;1643;47.746;9.000;2023-08-21T05:10:58;6.90;;;6.33;;
3261;SDS011;1643;47.746;9.000;2023-08-21T05:13:25;9.23;;;7.30;;
3261;SDS011;1643;47.746;9.000;2023-08-21T05:15:54;10.23;;;7.80;;
3261;SDS011;1643;47.746;9.000;2023-08-21T05:18:21;8.10;;;7.17;;
3261;SDS011;1643;47.746;9.000;2023-08-21T05:20:48;9.03;;;6.93;;
3261;SDS011;1643;47.746;9.000;2023-08-21T05:23:14;9.17;;;8.27;;
3261;SDS011;1643;47.746;9.000;2023-08-21T05:25:40;9.07;;;8.17;;
3261;SDS011;1643;47.746;9.000;2023-08-21T05:28:07;8.40;;;7.07;;
3261;SDS011;1643;47.746;9.000;2023-08-21T05:30:33;7.50;;;6.77;;
3261;SDS011;1643;47.746;9.000;2023-08-21T05:33:01;10.17;;;7.50;;
3261;SDS011;1643;47.746;9.000;2023-08-21T05:35:27;7.47;;;6.77;;
3261;SDS011;1643;47.746;9.000;2023-08-21T05:37:52;9.37;;;7.50;;
3261;SDS011;1643;47.746;9.000;2023-08-21T05:40:18;8.07;;;7.07;;
3261;SDS011;1643;47.746;9.000;2023-08-21T05:42:44;9.77;;;7.50;;
3261;SDS011;1643;47.746;9.000;2023-08-21T05:45:10;7.97;;;7.10;;
3261;SDS011;1643;47.746;9.000;2023-08-21T05:47:35;8.40;;;7.20;;
3261;SDS011;1643;47.746;9.000;2023-08-21T05:50:01;8.83;;;7.30;;
3261;SDS011;1643;47.746;9.000;2023-08-21T05:52:27;7.80;;;7.00;;
3261;SDS011;1643;47.746;9.000;2023-08-21T05:54:52;8.27;;;7.47;;
3261;SDS011;1643;47.746;9.000;2023-08-21T05:57:18;7.77;;;7.00;;
3261;SDS011;1643;47.746;9.000;2023-08-21T05:59:44;9.20;;;8.30;;
3261;SDS011;1643;47.746;9.000;2023-08-21T06:02:11;7.13;;;6.43;;
3261;SDS011;1643;47.746;9.000;2023-08-21T06:04:40;9.43;;;7.40;;
3261;SDS011;1643;47.746;9.000;2023-08-21T06:07:06;8.63;;;7.30;;
3261;SDS011;1643;47.746;9.000;2023-08-21T06:09:32;8.57;;;6.50;;
3261;SDS011;1643;47.746;9.000;2023-08-21T06:12:02;8.77;;;7.97;;
3261;SDS011;1643;47.746;9.000;2023-08-21T06:14:29;7.03;;;6.33;;
3261;SDS011;1643;47.746;9.000;2023-08-21T06:16:59;7.60;;;6.80;;
3261;SDS011;1643;47.746;9.000;2023-08-21T06:19:25;7.73;;;7.03;;
3261;SDS011;1643;47.746;9.000;2023-08-21T06:21:51;8.43;;;7.23;;
3261;SDS011;1643;47.746;9.000;2023-08-21T06:24:17;7.73;;;7.07;;
3261;SDS011;1643;47.746;9.000;2023-08-21T06:26:43;9.27;;;8.30;;
3261;SDS011;1643;47.746;9.000;2023-08-21T06:29:08;8.23;;;7.40;;
3261;SDS011;1643;47.746;9.000;2023-08-21T06:31:34;7.77;;;7.07;;
3261;SDS011;1643;47.746;9.000;2023-08-21T06:33:59;7.40;;;6.70;;
3261;SDS011;1643;47.746;9.000;2023-08-21T06:36:25;7.90;;;7.07;;
3261;SDS011;1643;47.746;9.000;2023-08-21T06:38:51;7.23;;;6.60;;
3261;SDS011;1643;47.746;9.000;2023-08-21T06:41:16;8.23;;;7.43;;
3261;SDS011;1643;47.746;9.000;2023-08-21T06:43:42;10.40;;;7.60;;
3261;SDS011;1643;47.746;9.000;2023-08-21T06:46:08;13.83;;;7.47;;
3261;SDS011;1643;47.746;9.000;2023-08-21T06:48:34;10.07;;;7.43;;
3261;SDS011;1643;47.746;9.000;2023-08-21T06:51:02;7.23;;;6.60;;
3261;SDS011;1643;47.746;9.000;2023-08-21T06:53:28;9.37;;;7.93;;
3261;SDS011;1643;47.746;9.000;2023-08-21T06:55:54;11.73;;;7.57;;
3261;SDS011;1643;47.746;9.000;2023-08-21T06:58:19;8.97;;;7.80;;
3261;SDS011;1643;47.746;9.000;2023-08-21T07:00:46;10.63;;;8.10;;
3261;SDS011;1643;47.746;9.000;2023-08-21T07:03:11;8.23;;;7.43;;
3261;SDS011;1643;47.746;9.000;2023-08-21T07:05:37;9.67;;;7.17;;
3261;SDS011;1643;47.746;9.000;2023-08-21T07:08:03;9.10;;;7.40;;
3261;SDS011;1643;47.746;9.000;2023-08-21T07:10:29;8.73;;;7.83;;
3261;SDS011;1643;47.746;9.000;2023-08-21T07:12:55;9.60;;;7.83;;
3261;SDS011;1643;47.746;9.000;2023-08-21T07:15:20;8.90;;;8.10;;
3261;SDS011;1643;47.746;9.000;2023-08-21T07:17:46;9.40;;;7.53;;
3261;SDS011;1643;47.746;9.000;2023-08-21T07:20:12;9.03;;;8.10;;
3261;SDS011;1643;47.746;9.000;2023-08-21T07:22:38;8.83;;;7.20;;
3261;SDS011;1643;47.746;9.000;2023-08-21T07:25:04;8.43;;;7.63;;
3261;SDS011;1643;47.746;9.000;2023-08-21T07:27:30;9.10;;;8.20;;
3261;SDS011;1643;47.746;9.000;2023-08-21T07:29:56;8.33;;;7.63;;
3261;SDS011;1643;47.746;9.000;2023-08-21T07:32:22;9.70;;;7.27;;
3261;SDS011;1643;47.746;9.000;2023-08-21T07:34:51;8.90;;;7.70;;
3261;SDS011;1643;47.746;9.000;2023-08-21T07:37:18;12.10;;;8.20;;
3261;SDS011;1643;47.746;9.000;2023-08-21T07:39:43;12.17;;;8.70;;
3261;SDS011;1643;47.746;9.000;2023-08-21T07:42:10;13.23;;;9.87;;
3261;SDS011;1643;47.746;9.000;2023-08-21T07:44:38;11.20;;;8.80;;
3261;SDS011;1643;47.746;9.000;2023-08-21T07:47:05;13.23;;;8.30;;
3261;SDS011;1643;47.746;9.000;2023-08-21T07:49:31;8.70;;;7.80;;
3261;SDS011;1643;47.746;9.000;2023-08-21T07:51:57;8.70;;;7.80;;
3261;SDS011;1643;47.746;9.000;2023-08-21T07:54:23;9.37;;;7.87;;
3261;SDS011;1643;47.746;9.000;2023-08-21T07:56:49;8.17;;;7.10;;
3261;SDS011;1643;47.746;9.000;2023-08-21T07:59:15;8.40;;;6.70;;
3261;SDS011;1643;47.746;9.000;2023-08-21T08:01:41;10.60;;;7.10;;
3261;SDS011;1643;47.746;9.000;2023-08-21T08:04:07;10.47;;;7.73;;
3261;SDS011;1643;47.746;9.000;2023-08-21T08:06:33;7.80;;;7.10;;
3261;SDS011;1643;47.746;9.000;2023-08-21T08:08:59;7.97;;;7.27;;
3261;SDS011;1643;47.746;9.000;2023-08-21T08:11:25;7.30;;;6.60;;
3261;SDS011;1643;47.746;9.000;2023-08-21T08:13:50;7.93;;;7.17;;
3261;SDS011;1643;47.746;9.000;2023-08-21T08:16:16;7.50;;;6.80;;
3261;SDS011;1643;47.746;9.000;2023-08-21T08:18:42;12.80;;;7.73;;
3261;SDS011;1643;47.746;9.000;2023-08-21T08:21:07;7.47;;;6.80;;
3261;SDS011;1643;47.746;9.000;2023-08-21T08:23:34;7.80;;;6.40;;
3261;SDS011;1643;47.746;9.000;2023-08-21T08:25:59;6.67;;;6.07;;
3261;SDS011;1643;47.746;9.000;2023-08-21T08:28:25;7.60;;;6.90;;
3261;SDS011;1643;47.746;9.000;2023-08-21T08:30:51;7.07;;;6.47;;
3261;SDS011;1643;47.746;9.000;2023-08-21T08:33:17;10.10;;;5.80;;
3261;SDS011;1643;47.746;9.000;2023-08-21T08:35:42;7.20;;;6.00;;
3261;SDS011;1643;47.746;9.000;2023-08-21T08:38:08;7.63;;;6.40;;
3261;SDS011;1643;47.746;9.000;2023-08-21T08:40:35;7.53;;;6.83;;
3261;SDS011;1643;47.746;9.000;2023-08-21T08:43:05;7.43;;;6.70;;
3261;SDS011;1643;47.746;9.000;2023-08-21T08:45:31;8.53;;;6.77;;
3261;SDS011;1643;47.746;9.000;2023-08-21T08:47:59;8.80;;;6.70;;
3261;SDS011;1643;47.746;9.000;2023-08-21T08:50:27;8.67;;;6.50;;
3261;SDS011;1643;47.746;9.000;2023-08-21T08:52:55;6.77;;;6.20;;
3261;SDS011;1643;47.746;9.000;2023-08-21T08:55:22;7.20;;;6.57;;
3261;SDS011;1643;47.746;9.000;2023-08-21T08:57:48;7.00;;;6.40;;
3261;SDS011;1643;47.746;9.000;2023-08-21T09:00:14;9.87;;;6.70;;
3261;SDS011;1643;47.746;9.000;2023-08-21T09:02:40;7.03;;;6.33;;
3261;SDS011;1643;47.746;9.000;2023-08-21T09:05:06;7.90;;;6.70;;
3261;SDS011;1643;47.746;9.000;2023-08-21T09:07:33;9.00;;;6.17;;
3261;SDS011;1643;47.746;9.000;2023-08-21T09:09:59;7.90;;;6.00;;
3261;SDS011;1643;47.746;9.000;2023-08-21T09:12:25;11.93;;;6.83;;
3261;SDS011;1643;47.746;9.000;2023-08-21T09:14:51;8.20;;;6.47;;
3261;SDS011;1643;47.746;9.000;2023-08-21T09:17:17;8.33;;;6.47;;
3261;SDS011;1643;47.746;9.000;2023-08-21T09:19:43;8.23;;;7.00;;
3261;SDS011;1643;47.746;9.000;2023-08-21T09:22:14;7.57;;;6.73;;
3261;SDS011;1643;47.746;9.000;2023-08-21T09:27:38;8.00;;;7.20;;
3261;SDS011;1643;47.746;9.000;2023-08-21T09:30:05;8.13;;;7.33;;
3261;SDS011;1643;47.746;9.000;2023-08-21T09:32:52;9.17;;;8.17;;
3261;SDS011;1643;47.746;9.000;2023-08-21T09:35:31;8.80;;;7.33;;
3261;SDS011;1643;47.746;9.000;2023-08-21T09:37:58;8.90;;;8.10;;
3261;SDS011;1643;47.746;9.000;2023-08-21T09:40:24;8.00;;;7.30;;
3261;SDS011;1643;47.746;9.000;2023-08-21T09:42:53;9.30;;;7.00;;
3261;SDS011;1643;47.746;9.000;2023-08-21T09:45:21;10.43;;;7.37;;
3261;SDS011;1643;47.746;9.000;2023-08-21T09:47:51;7.70;;;6.33;;
3261;SDS011;1643;47.746;9.000;2023-08-21T09:50:18;7.87;;;7.03;;
3261;SDS011;1643;47.746;9.000;2023-08-21T09:52:44;8.37;;;7.57;;
3261;SDS011;1643;47.746;9.000;2023-08-21T09:55:12;8.13;;;7.33;;
3261;SDS011;1643;47.746;9.000;2023-08-21T09:57:39;8.87;;;7.53;;
3261;SDS011;1643;47.746;9.000;2023-08-21T10:00:06;7.73;;;7.03;;
3261;SDS011;1643;47.746;9.000;2023-08-21T10:02:46;7.73;;;6.93;;
3261;SDS011;1643;47.746;9.000;2023-08-21T10:05:16;7.00;;;6.30;;
3261;SDS011;1643;47.746;9.000;2023-08-21T10:07:43;7.57;;;6.80;;
3261;SDS011;1643;47.746;9.000;2023-08-21T10:10:12;10.10;;;9.10;;
3261;SDS011;1643;47.746;9.000;2023-08-21T10:12:38;7.60;;;6.87;;
3261;SDS011;1643;47.746;9.000;2023-08-21T10:15:03;9.03;;;6.83;;
3261;SDS011;1643;47.746;9.000;2023-08-21T10:17:31;9.77;;;7.30;;
3261;SDS011;1643;47.746;9.000;2023-08-21T10:20:02;10.23;;;7.87;;
3261;SDS011;1643;47.746;9.000;2023-08-21T10:22:44;11.10;;;6.90;;
3261;SDS011;1643;47.746;9.000;2023-08-21T10:25:13;7.10;;;6.50;;
3261;SDS011;1643;47.746;9.000;2023-08-21T10:27:45;8.93;;;7.33;;
3261;SDS011;1643;47.746;9.000;2023-08-21T10:30:28;12.57;;;7.00;;
3261;SDS011;1643;47.746;9.000;2023-08-21T10:32:55;10.00;;;7.40;;
3261;SDS011;1643;47.746;9.000;2023-08-21T10:35:23;7.57;;;6.87;;
3261;SDS011;1643;47.746;9.000;2023-08-21T10:40:38;8.83;;;7.27;;
3261;SDS011;1643;47.746;9.000;2023-08-21T10:43:14;10.10;;;6.57;;
3261;SDS011;1643;47.746;9.000;2023-08-21T10:46:07;7.80;;;7.00;;
3261;SDS011;1643;47.746;9.000;2023-08-21T10:48:33;7.07;;;6.37;;
3261;SDS011;1643;47.746;9.000;2023-08-21T10:51:03;8.13;;;6.90;;
3261;SDS011;1643;47.746;9.000;2023-08-21T10:53:30;10.20;;;6.87;;
3261;SDS011;1643;47.746;9.000;2023-08-21T10:55:57;10.67;;;6.33;;
3261;SDS011;1643;47.746;9.000;2023-08-21T10:58:25;6.80;;;6.20;;
3261;SDS011;1643;47.746;9.000;2023-08-21T11:00:57;7.07;;;6.47;;
3261;SDS011;1643;47.746;9.000;2023-08-21T11:03:24;8.70;;;6.80;;
3261;SDS011;1643;47.746;9.000;2023-08-21T11:06:06;11.00;;;6.87;;
3261;SDS011;1643;47.746;9.000;2023-08-21T11:08:33;6.90;;;6.20;;
3261;SDS011;1643;47.746;9.000;2023-08-21T11:11:00;8.90;;;6.43;;
3261;SDS011;1643;47.746;9.000;2023-08-21T11:13:30;8.77;;;6.37;;
3261;SDS011;1643;47.746;9.000;2023-08-21T11:16:02;7.87;;;6.53;;
3261;SDS011;1643;47.746;9.000;2023-08-21T11:18:29;9.93;;;6.33;;
3261;SDS011;1643;47.746;9.000;2023-08-21T11:21:02;7.37;;;6.53;;
3261;SDS011;1643;47.746;9.000;2023-08-21T11:23:36;7.37;;;6.03;;
3261;SDS011;1643;47.746;9.000;2023-08-21T11:26:05;6.47;;;5.80;;
3261;SDS011;1643;47.746;9.000;2023-08-21T11:28:34;6.90;;;6.27;;
3261;SDS011;1643;47.746;9.000;2023-08-21T11:31:00;8.40;;;6.10;;
3261;SDS011;1643;47.746;9.000;2023-08-21T11:33:26;9.20;;;6.50;;
3261;SDS011;1643;47.746;9.000;2023-08-21T11:35:53;6.60;;;6.00;;
3261;SDS011;1643;47.746;9.000;2023-08-21T11:38:23;9.70;;;6.60;;
3261;SDS011;1643;47.746;9.000;2023-08-21T11:41:00;7.43;;;6.73;;
3261;SDS011;1643;47.746;9.000;2023-08-21T11:43:37;6.83;;;6.13;;
3261;SDS011;1643;47.746;9.000;2023-08-21T11:46:03;8.27;;;6.33;;
3261;SDS011;1643;47.746;9.000;2023-08-21T11:48:30;6.30;;;5.70;;
3261;SDS011;1643;47.746;9.000;2023-08-21T11:50:56;7.90;;;6.53;;
3261;SDS011;1643;47.746;9.000;2023-08-21T11:55:59;8.30;;;5.67;;
3261;SDS011;1643;47.746;9.000;2023-08-21T11:58:28;8.00;;;6.07;;
3261;SDS011;1643;47.746;9.000;2023-08-21T12:00:54;11.97;;;6.80;;
3261;SDS011;1643;47.746;9.000;2023-08-21T12:03:28;7.67;;;6.90;;
3261;SDS011;1643;47.746;9.000;2023-08-21T12:05:54;7.23;;;6.63;;
3261;SDS011;1643;47.746;9.000;2023-08-21T12:08:20;8.90;;;7.33;;
3261;SDS011;1643;47.746;9.000;2023-08-21T12:10:49;7.53;;;6.70;;
3261;SDS011;1643;47.746;9.000;2023-08-21T12:13:17;6.47;;;5.90;;
3261;SDS011;1643;47.746;9.000;2023-08-21T12:15:43;6.90;;;6.20;;
3261;SDS011;1643;47.746;9.000;2023-08-21T12:18:08;7.80;;;6.07;;
3261;SDS011;1643;47.746;9.000;2023-08-21T12:20:34;7.40;;;6.47;;
3261;SDS011;1643;47.746;9.000;2023-08-21T12:22:59;7.60;;;5.60;;
3261;SDS011;1643;47.746;9.000;2023-08-21T12:25:25;6.80;;;5.47;;
3261;SDS011;1643;47.746;9.000;2023-08-21T12:27:51;11.73;;;6.43;;
3261;SDS011;1643;47.746;9.000;2023-08-21T12:30:16;6.90;;;5.40;;
3261;SDS011;1643;47.746;9.000;2023-08-21T12:32:42;7.63;;;6.43;;
3261;SDS011;1643;47.746;9.000;2023-08-21T12:35:08;6.90;;;6.30;;
3261;SDS011;1643;47.746;9.000;2023-08-21T12:37:36;8.00;;;6.17;;
3261;SDS011;1643;47.746;9.000;2023-08-21T12:40:02;13.73;;;5.23;;
3261;SDS011;1643;47.746;9.000;2023-08-21T12:42:28;5.30;;;4.80;;
3261;SDS011;1643;47.746;9.000;2023-08-21T12:44:54;7.17;;;5.10;;
3261;SDS011;1643;47.746;9.000;2023-08-21T12:47:19;6.53;;;5.90;;
3261;SDS011;1643;47.746;9.000;2023-08-21T12:49:45;6.20;;;5.27;;
3261;SDS011;1643;47.746;9.000;2023-08-21T12:52:11;5.23;;;4.60;;
3261;SDS011;1643;47.746;9.000;2023-08-21T12:54:38;6.37;;;5.77;;
3261;SDS011;1643;47.746;9.000;2023-08-21T12:57:04;6.63;;;5.10;;
3261;SDS011;1643;47.746;9.000;2023-08-21T12:59:29;5.03;;;4.53;;
3261;SDS011;1643;47.746;9.000;2023-08-21T13:01:55;5.43;;;4.93;;
3261;SDS011;1643;47.746;9.000;2023-08-21T13:04:21;10.47;;;5.00;;
3261;SDS011;1643;47.746;9.000;2023-08-21T13:06:46;5.73;;;4.60;;
3261;SDS011;1643;47.746;9.000;2023-08-21T13:09:12;6.23;;;4.57;;
3261;SDS011;1643;47.746;9.000;2023-08-21T13:11:38;6.70;;;4.40;;
3261;SDS011;1643;47.746;9.000;2023-08-21T13:14:03;5.00;;;4.60;;
3261;SDS011;1643;47.746;9.000;2023-08-21T13:16:29;5.33;;;4.83;;
3261;SDS011;1643;47.746;9.000;2023-08-21T13:18:54;5.90;;;5.00;;
3261;SDS011;1643;47.746;9.000;2023-08-21T13:21:20;8.33;;;5.23;;
3261;SDS011;1643;47.746;9.000;2023-08-21T13:23:45;6.13;;;5.33;;
3261;SDS011;1643;47.746;9.000;2023-08-21T13:26:11;4.90;;;4.40;;
3261;SDS011;1643;47.746;9.000;2023-08-21T13:28:37;5.20;;;4.20;;
3261;SDS011;1643;47.746;9.000;2023-08-21T13:31:02;10.77;;;5.10;;
3261;SDS011;1643;47.746;9.000;2023-08-21T13:33:28;5.30;;;4.80;;
3261;SDS011;1643;47.746;9.000;2023-08-21T13:35:54;5.30;;;4.80;;
3261;SDS011;1643;47.746;9.000;2023-08-21T13:38:19;5.77;;;4.43;;
3261;SDS011;1643;47.746;9.000;2023-08-21T13:40:45;5.70;;;4.80;;
3261;SDS011;1643;47.746;9.000;2023-08-21T13:43:10;8.07;;;6.10;;
3261;SDS011;1643;47.746;9.000;2023-08-21T13:45:37;7.50;;;5.70;;
3261;SDS011;1643;47.746;9.000;2023-08-21T13:48:04;8.17;;;5.63;;
3261;SDS011;1643;47.746;9.000;2023-08-21T13:50:30;7.77;;;6.07;;
3261;SDS011;1643;47.746;9.000;2023-08-21T13:52:56;7.20;;;6.10;;
3261;SDS011;1643;47.746;9.000;2023-08-21T13:55:22;7.03;;;6.33;;
3261;SDS011;1643;47.746;9.000;2023-08-21T13:57:48;13.00;;;6.40;;
3261;SDS011;1643;47.746;9.000;2023-08-21T14:00:14;7.47;;;6.70;;
3261;SDS011;1643;47.746;9.000;2023-08-21T14:02:42;6.90;;;6.03;;
3261;SDS011;1643;47.746;9.000;2023-08-21T14:05:08;7.20;;;6.50;;
3261;SDS011;1643;47.746;9.000;2023-08-21T14:07:35;8.73;;;5.40;;
3261;SDS011;1643;47.746;9.000;2023-08-21T14:10:01;14.90;;;6.20;;
3261;SDS011;1643;47.746;9.000;2023-08-21T14:12:28;10.20;;;6.57;;
3261;SDS011;1643;47.746;9.000;2023-08-21T14:14:55;7.20;;;5.67;;
3261;SDS011;1643;47.746;9.000;2023-08-21T14:17:20;6.87;;;6.27;;
3261;SDS011;1643;47.746;9.000;2023-08-21T14:19:46;9.10;;;5.90;;
3261;SDS011;1643;47.746;9.000;2023-08-21T14:22:12;6.87;;;5.90;;
3261;SDS011;1643;47.746;9.000;2023-08-21T14:24:37;5.83;;;5.23;;
3261;SDS011;1643;47.746;9.000;2023-08-21T14:27:03;6.63;;;6.00;;
3261;SDS011;1643;47.746;9.000;2023-08-21T14:29:29;6.03;;;5.20;;
3261;SDS011;1643;47.746;9.000;2023-08-21T14:31:54;6.17;;;5.27;;
3261;SDS011;1643;47.746;9.000;2023-08-21T14:34:22;7.50;;;5.20;;
3261;SDS011;1643;47.746;9.000;2023-08-21T14:36:47;9.30;;;6.23;;
3261;SDS011;1643;47.746;9.000;2023-08-21T14:39:13;6.10;;;5.00;;
3261;SDS011;1643;47.746;9.000;2023-08-21T14:41:42;8.17;;;5.37;;
3261;SDS011;1643;47.746;9.000;2023-08-21T14:44:08;7.10;;;5.50;;
3261;SDS011;1643;47.746;9.000;2023-08-21T14:46:35;6.17;;;5.47;;
3261;SDS011;1643;47.746;9.000;2023-08-21T14:49:01;7.53;;;4.83;;
3261;SDS011;1643;47.746;9.000;2023-08-21T14:51:27;5.27;;;4.70;;
3261;SDS011;1643;47.746;9.000;2023-08-21T14:53:53;5.67;;;5.07;;
3261;SDS011;1643;47.746;9.000;2023-08-21T14:56:19;5.40;;;4.90;;
3261;SDS011;1643;47.746;9.000;2023-08-21T14:58:46;6.33;;;4.80;;
3261;SDS011;1643;47.746;9.000;2023-08-21T15:01:12;6.90;;;4.67;;
3261;SDS011;1643;47.746;9.000;2023-08-21T15:03:38;6.57;;;4.70;;
3261;SDS011;1643;47.746;9.000;2023-08-21T15:06:04;7.87;;;4.87;;
3261;SDS011;1643;47.746;9.000;2023-08-21T15:08:30;4.60;;;4.20;;
3261;SDS011;1643;47.746;9.000;2023-08-21T15:10:56;5.43;;;4.77;;
3261;SDS011;1643;47.746;9.000;2023-08-21T15:13:21;7.73;;;4.90;;
3261;SDS011;1643;47.746;9.000;2023-08-21T15:15:47;4.63;;;4.23;;
3261;SDS011;1643;47.746;9.000;2023-08-21T15:18:13;5.40;;;4.67;;
3261;SDS011;1643;47.746;9.000;2023-08-21T15:20:38;5.03;;;4.47;;
3261;SDS011;1643;47.746;9.000;2023-08-21T15:23:04;9.10;;;4.73;;
3261;SDS011;1643;47.746;9.000;2023-08-21T15:25:30;5.50;;;4.10;;